Buchanan Airport

Jump to: basic info | weather | comments

Related pages: nearby airports | nearby navaids | notams | map

Basic information (top)

Codes: UCN GLBU
Location: lon 5.167650, lat -9.283470, elev 41 ft / 12 m msl
Status: small_airport
Scheduled airline service: no
Links: Wikipedia Mobile

Weather (top)

Current conditions for Roberts International Airport 91nm (168km) NW (rec'd 2014/10/31 23:00Z):

GLRB 312300Z 00000KT 9999 FEW012 FW023CB 25/24 Q1013 RMK CB-SW

Airport forecast for Roberts International Airport 91nm (168km) NW (rec'd 2014/10/31 18:54Z):

TAF GLRB 311600Z 3118/0124 36010KT 9999 TS BKN018 FEW027CB 
      BECMG 3120/3122 08004KT 9999 FM 312300 02010KT 9000 TSRA SCT004 BKN014 FEW024CB 
      TEMPO 0105/0110 24010KT 8000

Latest comments (top)

No comments yet for Buchanan Airport

More... (top)

See also NOTAMs and nearby airports and navaids, or visit the Buchanan Airport page at the main OurAirports website..